Peralta, New Mexico
Current Conditions -  °F | °C
As of 2:52 AM on Monday 26 Jan 2015 (Local Time) from KABQ Reporting Station
Clear Clear  
Wind Chill: 29°   Ceiling: Unl
Heat Index: 35°   Visibility: 10mi
Dew Point: 25°   Wind: 8mph
Humidity: 67%   Direction: 10°N
Pressure: 30.36"   Gusts: NA
Location:  34.84°N, 106.69°W
Report Text: KABQ 260952Z 01007KT 10SM CLR 02/M04 A3036 RMK AO2 SLP265 T00171039
Loading
Personal Weather Stations






























Interactive Weather Map New forecast layout! Learn more

10-Day Weather Forecast

Advertisements
Track Severe Weather on mobile